This is the latest recevied weather packets stored in our database for station/object N8ESC. If no packets are shown the sender has not sent any weather packets the latest 10 day(s).
| Time | Temp. | Humidity | Pressure | Rain* | Wind** | Luminosity | Snow |
|---|---|---|---|---|---|---|---|
| 1778006772 | 11.11° C | 36% | 1004.4 hPa | 0 mm | - | 382 W/m² | - |
| 1778006468 | 11.11° C | 35% | 1004.2 hPa | 0 mm | - | 673 W/m² | - |
| 1778006165 | 11.11° C | 35% | 1004.1 hPa | 0 mm | - | 403 W/m² | - |
| 1778005863 | 10.56° C | 37% | 1004.3 hPa | 0 mm | - | 329 W/m² | - |
| 1778005559 | 10.56° C | 37% | 1004.2 hPa | 0 mm | - | 619 W/m² | - |
| 1778005256 | 11.11° C | 36% | 1004 hPa | 0 mm | - | 352 W/m² | - |
| 1778004952 | 10.56° C | 37% | 1004 hPa | 0 mm | - | 366 W/m² | - |
| 1778004650 | 10.56° C | 37% | 1004 hPa | 0 mm | - | 404 W/m² | - |
| 1778004345 | 10.56° C | 37% | 1004 hPa | 0 mm | - | 412 W/m² | - |
| 1778004044 | 10.56° C | 37% | 1004.1 hPa | 0 mm | - | 354 W/m² | - |
| 1778003744 | 10° C | 36% | 1003.8 hPa | 0 mm | - | 289 W/m² | - |
| 1778003441 | 10° C | 36% | 1004 hPa | 0 mm | - | 273 W/m² | - |
| 1778003138 | 10.56° C | 36% | 1003.7 hPa | 0 mm | - | 275 W/m² | - |
| 1778002834 | 10° C | 37% | 1003.6 hPa | 0 mm | - | 298 W/m² | - |
| 1778002531 | 10° C | 38% | 1003.8 hPa | 0 mm | - | 350 W/m² | - |
| 1778002228 | 10° C | 38% | 1003.8 hPa | 0 mm | - | 287 W/m² | - |
| 1778001926 | 10° C | 39% | 1003.6 hPa | 0 mm | - | 287 W/m² | - |
| 1778001621 | 10.56° C | 37% | 1003.5 hPa | 0 mm | - | 302 W/m² | - |
| 1778001317 | 9.44° C | 39% | 1003.6 hPa | 0 mm | - | 363 W/m² | - |
| 1778001014 | 10° C | 37% | 1003.4 hPa | 0 mm | - | 273 W/m² | - |
| 1778000710 | 10° C | 38% | 1003.5 hPa | 0 mm | - | 384 W/m² | - |
| 1778000407 | 10° C | 40% | 1003.5 hPa | 0 mm | - | 303 W/m² | - |
| 1778000102 | 10° C | 38% | 1003.7 hPa | 0 mm | - | 297 W/m² | - |
| 1777999798 | 9.44° C | 41% | 1003.5 hPa | 0 mm | - | 362 W/m² | - |
| 1777999494 | 9.44° C | 42% | 1003.5 hPa | 0 mm | - | 218 W/m² | - |
* Rain latest hour (hover to see other rain measurements)
** Current wind speed in m/s (hover to see current wind gust speed)